createdAt,value
2022-11-14T00:00:52.457Z,9.83
2022-11-14T00:03:40.540Z,9.80
2022-11-14T00:06:27.115Z,9.27
2022-11-14T00:09:13.881Z,9.17
2022-11-14T00:12:00.382Z,9.03
2022-11-14T00:14:47.085Z,9.67
2022-11-14T00:17:33.402Z,8.90
2022-11-14T00:20:21.157Z,9.27
2022-11-14T00:23:07.711Z,9.17
2022-11-14T00:25:54.154Z,9.20
2022-11-14T00:28:40.384Z,9.00
2022-11-14T00:31:26.478Z,9.03
2022-11-14T00:34:12.891Z,8.80
2022-11-14T00:37:00.883Z,9.07
2022-11-14T00:39:47.455Z,9.37
2022-11-14T00:42:34.604Z,9.30
2022-11-14T00:45:21.256Z,9.47
2022-11-14T00:48:07.689Z,9.27
2022-11-14T00:50:54.072Z,9.17
2022-11-14T00:53:41.749Z,8.87
2022-11-14T00:56:28.045Z,9.10
2022-11-14T00:59:14.435Z,8.97
2022-11-14T01:02:01.711Z,8.87
2022-11-14T01:04:48.488Z,8.90
2022-11-14T01:07:34.668Z,8.83
2022-11-14T01:10:23.281Z,8.47
2022-11-14T01:13:09.971Z,8.60
2022-11-14T01:15:56.489Z,9.40
2022-11-14T01:18:43.004Z,8.97
2022-11-14T01:21:29.343Z,8.63
2022-11-14T01:24:15.852Z,9.67
2022-11-14T01:27:04.098Z,9.07
2022-11-14T01:29:50.342Z,8.70
2022-11-14T01:32:36.490Z,9.70
2022-11-14T01:35:23.019Z,8.80
2022-11-14T01:38:13.599Z,8.83
2022-11-14T01:41:00.169Z,9.13
2022-11-14T01:43:48.134Z,10.43
2022-11-14T01:46:36.465Z,9.23
2022-11-14T01:49:26.245Z,8.53
2022-11-14T01:52:15.967Z,8.77
2022-11-14T01:55:04.487Z,8.27
2022-11-14T01:57:50.985Z,8.67
2022-11-14T02:00:39.048Z,8.03
2022-11-14T02:03:25.489Z,9.03
2022-11-14T02:06:15.442Z,8.37
2022-11-14T02:09:05.181Z,8.83
2022-11-14T02:11:51.916Z,8.47
2022-11-14T02:14:39.082Z,8.87
2022-11-14T02:17:30.513Z,8.60
2022-11-14T02:20:22.350Z,8.47
2022-11-14T02:23:08.485Z,8.20
2022-11-14T02:25:55.543Z,8.53
2022-11-14T02:28:41.809Z,8.07
2022-11-14T02:31:28.092Z,8.13
2022-11-14T02:34:16.808Z,8.60
2022-11-14T02:37:04.778Z,8.10
2022-11-14T02:39:51.248Z,7.47
2022-11-14T02:42:37.693Z,8.13
2022-11-14T02:45:24.558Z,7.67
2022-11-14T02:48:11.104Z,7.30
2022-11-14T02:50:57.726Z,8.20
2022-11-14T02:53:45.528Z,8.17
2022-11-14T02:56:31.788Z,8.03
2022-11-14T02:59:18.269Z,7.60
2022-11-14T03:02:05.290Z,7.80
2022-11-14T03:04:51.987Z,7.20
2022-11-14T03:07:38.274Z,7.70
2022-11-14T03:10:26.400Z,7.23
2022-11-14T03:13:12.995Z,7.50
2022-11-14T03:15:59.414Z,7.27
2022-11-14T03:18:45.913Z,7.87
2022-11-14T03:21:32.583Z,7.70
2022-11-14T03:24:18.928Z,7.30
2022-11-14T03:27:07.014Z,8.00
2022-11-14T03:29:53.131Z,8.13
2022-11-14T03:32:39.459Z,7.43
2022-11-14T03:35:26.045Z,7.50
2022-11-14T03:38:12.799Z,7.83
2022-11-14T03:41:00.125Z,7.07
2022-11-14T03:43:48.118Z,7.57
2022-11-14T03:46:34.360Z,7.60
2022-11-14T03:49:20.847Z,7.13
2022-11-14T03:52:07.338Z,6.87
2022-11-14T03:54:54.145Z,7.20
2022-11-14T03:57:40.317Z,6.90
2022-11-14T04:00:28.847Z,6.57
2022-11-14T04:03:15.486Z,7.10
2022-11-14T04:06:03.145Z,7.50
2022-11-14T04:08:49.402Z,7.43
2022-11-14T04:11:36.033Z,7.70
2022-11-14T04:14:22.420Z,6.53
2022-11-14T04:17:10.641Z,7.10
2022-11-14T04:19:57.136Z,6.80
2022-11-14T04:22:43.621Z,7.57
2022-11-14T04:25:30.264Z,7.40
2022-11-14T04:28:17.087Z,6.93
2022-11-14T04:31:03.622Z,7.17
2022-11-14T04:33:51.610Z,7.47
2022-11-14T04:36:38.077Z,10.47
2022-11-14T04:39:24.730Z,7.20
2022-11-14T04:42:11.232Z,7.53
2022-11-14T04:44:57.890Z,7.00
2022-11-14T04:47:44.255Z,7.27
2022-11-14T04:50:32.076Z,7.13
2022-11-14T04:53:18.644Z,7.17
2022-11-14T04:56:05.439Z,7.00
2022-11-14T04:58:51.675Z,7.50
2022-11-14T05:01:37.957Z,6.70
2022-11-14T05:04:24.575Z,7.10
2022-11-14T05:07:12.434Z,6.57
2022-11-14T05:09:58.995Z,6.33
2022-11-14T05:12:45.486Z,7.47
2022-11-14T05:15:31.985Z,6.87
2022-11-14T05:18:18.489Z,6.73
2022-11-14T05:21:05.470Z,6.90
2022-11-14T05:23:53.003Z,7.40
2022-11-14T05:26:39.698Z,8.10
2022-11-14T05:29:26.172Z,7.40
2022-11-14T05:32:16.280Z,7.23
2022-11-14T05:35:03.194Z,7.23
2022-11-14T05:37:49.418Z,7.17
2022-11-14T05:40:38.475Z,6.60
2022-11-14T05:43:24.943Z,7.27
2022-11-14T05:46:12.728Z,7.30
2022-11-14T05:48:59.004Z,6.93
2022-11-14T05:51:45.258Z,7.10
2022-11-14T05:54:31.893Z,7.27
2022-11-14T05:57:20.048Z,7.10
2022-11-14T06:00:07.055Z,6.80
2022-11-14T06:02:53.969Z,7.43
2022-11-14T06:05:40.386Z,7.77
2022-11-14T06:08:26.984Z,7.47
2022-11-14T06:11:15.958Z,7.90
2022-11-14T06:14:08.193Z,8.63
2022-11-14T06:16:57.160Z,7.90
2022-11-14T06:19:43.884Z,7.70
2022-11-14T06:22:30.386Z,7.60
2022-11-14T06:25:17.001Z,7.40
2022-11-14T06:28:03.508Z,7.40
2022-11-14T06:30:51.222Z,8.33
2022-11-14T06:33:38.525Z,8.10
2022-11-14T06:36:25.018Z,7.53
2022-11-14T06:39:11.863Z,6.77
2022-11-14T06:41:58.445Z,7.70
2022-11-14T06:44:45.103Z,15.83
2022-11-14T06:47:32.855Z,15.47
2022-11-14T06:50:19.357Z,7.70
2022-11-14T06:53:05.775Z,7.87
2022-11-14T06:55:56.499Z,7.43
2022-11-14T06:58:44.922Z,8.37
2022-11-14T07:01:31.368Z,8.90
2022-11-14T07:04:19.208Z,9.30
2022-11-14T07:07:05.542Z,8.37
2022-11-14T07:09:52.129Z,9.47
2022-11-14T07:12:38.551Z,8.80
2022-11-14T07:15:25.338Z,8.87
2022-11-14T07:18:12.210Z,7.87
2022-11-14T07:21:01.022Z,7.30
2022-11-14T07:23:47.607Z,7.80
2022-11-14T07:26:34.186Z,7.37
2022-11-14T07:29:21.068Z,8.07
2022-11-14T07:32:07.423Z,8.50
2022-11-14T07:34:57.855Z,8.37
2022-11-14T07:37:50.176Z,7.77
2022-11-14T07:40:36.692Z,8.80
2022-11-14T07:43:23.401Z,8.30
2022-11-14T07:46:12.654Z,7.70
2022-11-14T07:48:59.021Z,7.87
2022-11-14T07:51:45.220Z,8.13
2022-11-14T07:54:33.290Z,7.60
2022-11-14T07:57:19.984Z,7.50
2022-11-14T08:00:07.517Z,7.63
2022-11-14T08:02:54.338Z,8.03
2022-11-14T08:05:41.610Z,8.07
2022-11-14T08:08:28.550Z,8.60
2022-11-14T08:11:37.367Z,8.10
2022-11-14T08:14:23.784Z,8.07
2022-11-14T08:17:10.384Z,8.10
2022-11-14T08:19:56.769Z,8.83
2022-11-14T08:22:43.016Z,7.90
2022-11-14T08:25:29.509Z,7.93
2022-11-14T08:28:17.489Z,7.77
2022-11-14T08:31:05.139Z,9.30
2022-11-14T08:33:53.217Z,9.03
2022-11-14T08:36:39.927Z,10.40
2022-11-14T08:39:26.405Z,8.27
2022-11-14T08:42:13.043Z,8.93
2022-11-14T08:45:01.010Z,8.63
2022-11-14T08:47:52.431Z,8.03
2022-11-14T08:50:39.432Z,8.80
2022-11-14T08:53:25.785Z,8.80
2022-11-14T08:56:12.457Z,8.77
2022-11-14T08:58:59.658Z,8.10
2022-11-14T09:01:47.552Z,9.00
2022-11-14T09:04:34.365Z,8.90
2022-11-14T09:07:21.161Z,8.23
2022-11-14T09:10:08.604Z,8.10
2022-11-14T09:12:57.018Z,8.50
2022-11-14T09:15:43.740Z,7.37
2022-11-14T09:18:32.440Z,8.00
2022-11-14T09:21:19.465Z,8.00
2022-11-14T09:24:06.567Z,7.77
2022-11-14T09:26:56.737Z,8.00
2022-11-14T09:29:43.770Z,7.73
2022-11-14T09:32:30.037Z,8.53
2022-11-14T09:35:18.194Z,8.20
2022-11-14T09:38:05.637Z,7.70
2022-11-14T09:41:00.293Z,7.57
2022-11-14T09:44:11.096Z,8.53
2022-11-14T09:46:59.414Z,7.80
2022-11-14T09:49:47.310Z,8.83
2022-11-14T09:52:37.671Z,7.80
2022-11-14T09:55:27.813Z,8.87
2022-11-14T09:58:20.177Z,8.80
2022-11-14T10:01:09.774Z,9.07
2022-11-14T10:04:09.138Z,9.47
2022-11-14T10:07:01.179Z,8.50
2022-11-14T10:09:59.930Z,9.20
2022-11-14T10:12:55.357Z,9.83
2022-11-14T10:15:47.529Z,9.90
2022-11-14T10:18:45.652Z,10.97
2022-11-14T10:21:39.837Z,9.90
2022-11-14T10:24:36.910Z,10.43
2022-11-14T10:27:29.204Z,9.40
2022-11-14T10:30:17.304Z,9.60
2022-11-14T10:33:14.077Z,9.37
2022-11-14T10:36:06.750Z,9.47
2022-11-14T10:38:56.307Z,9.30
2022-11-14T10:41:56.713Z,8.33
2022-11-14T10:44:53.205Z,9.73
2022-11-14T10:47:42.137Z,9.10
2022-11-14T10:50:34.944Z,9.40
2022-11-14T10:53:28.200Z,9.30
2022-11-14T10:56:14.768Z,8.70
2022-11-14T10:59:01.162Z,7.87
2022-11-14T11:01:55.493Z,8.80
2022-11-14T11:04:43.099Z,8.53
2022-11-14T11:07:49.221Z,8.05
2022-11-14T11:10:57.353Z,8.35
2022-11-14T11:13:52.766Z,9.57
2022-11-14T11:16:39.152Z,8.35
2022-11-14T11:19:30.850Z,9.48
2022-11-14T11:22:29.855Z,8.73
2022-11-14T11:25:34.371Z,8.60
2022-11-14T11:28:21.845Z,8.20
2022-11-14T11:31:09.488Z,7.40
2022-11-14T11:33:56.185Z,7.05
2022-11-14T11:36:49.143Z,7.50
2022-11-14T11:39:39.168Z,7.40
2022-11-14T11:43:06.266Z,7.30
2022-11-14T11:45:36.231Z,7.75
2022-11-14T11:48:24.434Z,7.50
2022-11-14T11:51:17.396Z,8.18
2022-11-14T11:54:08.442Z,7.15
2022-11-14T11:56:58.401Z,7.35
2022-11-14T11:59:47.774Z,6.88
2022-11-14T12:02:34.216Z,9.90
2022-11-14T12:05:27.327Z,7.53
2022-11-14T12:08:21.904Z,7.43
2022-11-14T12:11:13.397Z,7.38
2022-11-14T12:14:10.158Z,7.28
2022-11-14T12:17:14.793Z,7.40
2022-11-14T12:20:18.800Z,7.90
2022-11-14T12:23:35.114Z,6.80
2022-11-14T12:26:37.196Z,6.60
2022-11-14T12:29:37.760Z,6.30
2022-11-14T12:32:29.664Z,6.57
2022-11-14T12:35:19.953Z,6.90
2022-11-14T12:38:14.925Z,6.47
2022-11-14T12:41:03.203Z,6.05
2022-11-14T12:43:51.120Z,6.35
2022-11-14T12:47:11.292Z,5.75
2022-11-14T12:50:07.179Z,5.97
2022-11-14T12:52:54.870Z,6.80
2022-11-14T12:56:06.965Z,5.75
2022-11-14T12:59:18.734Z,5.30
2022-11-14T13:02:39.498Z,5.78
2022-11-14T13:05:42.279Z,5.70
2022-11-14T13:08:54.661Z,5.90
2022-11-14T13:12:01.118Z,5.55
2022-11-14T13:15:10.562Z,12.95
2022-11-14T13:18:23.555Z,7.72
2022-11-14T13:21:45.093Z,5.90
2022-11-14T13:25:05.460Z,6.45
2022-11-14T13:28:14.635Z,5.43
2022-11-14T13:31:20.591Z,5.55
2022-11-14T13:34:40.939Z,6.22
2022-11-14T13:37:41.464Z,5.75
2022-11-14T13:40:32.518Z,6.25
2022-11-14T13:43:24.125Z,5.82
2022-11-14T13:46:22.065Z,6.30
2022-11-14T13:49:30.638Z,6.15
2022-11-14T13:52:18.016Z,5.97
2022-11-14T13:55:04.734Z,5.72
2022-11-14T13:58:05.695Z,6.13
2022-11-14T14:01:06.996Z,5.47
2022-11-14T14:04:18.797Z,6.00
2022-11-14T14:07:13.005Z,6.72
2022-11-14T14:10:04.760Z,6.68
2022-11-14T14:13:00.653Z,8.73
2022-11-14T14:15:51.467Z,6.72
2022-11-14T14:18:46.002Z,7.05
2022-11-14T14:21:40.377Z,6.78
2022-11-14T14:24:39.795Z,6.70
2022-11-14T14:27:29.894Z,6.50
2022-11-14T14:30:18.260Z,6.63
2022-11-14T14:33:11.237Z,5.68
2022-11-14T14:35:57.708Z,6.35
2022-11-14T14:38:45.806Z,6.00
2022-11-14T14:41:32.958Z,6.13
2022-11-14T14:44:25.003Z,6.18
2022-11-14T14:47:16.730Z,5.72
2022-11-14T14:50:05.059Z,6.68
2022-11-14T14:52:57.383Z,6.20
2022-11-14T14:55:53.181Z,5.78
2022-11-14T14:58:39.638Z,5.97
2022-11-14T15:01:29.929Z,6.45
2022-11-14T15:04:17.549Z,6.18
2022-11-14T15:07:05.242Z,6.75
2022-11-14T15:09:56.605Z,6.93
2022-11-14T15:12:44.764Z,6.22
2022-11-14T15:15:31.817Z,6.53
2022-11-14T15:18:24.688Z,5.93
2022-11-14T15:21:14.580Z,6.73
2022-11-14T15:24:02.759Z,6.38
2022-11-14T15:26:50.783Z,6.47
2022-11-14T15:29:46.497Z,6.53
2022-11-14T15:32:33.671Z,6.20
2022-11-14T15:35:29.408Z,7.17
2022-11-14T15:41:30.708Z,7.00
2022-11-14T15:44:30.620Z,6.50
2022-11-14T15:47:23.717Z,6.73
2022-11-14T15:50:25.049Z,6.80
2022-11-14T15:53:21.524Z,7.73
2022-11-14T15:56:11.129Z,8.07
2022-11-14T15:58:57.458Z,6.97
2022-11-14T16:01:44.572Z,7.30
2022-11-14T16:04:35.162Z,7.10
2022-11-14T16:07:21.458Z,7.10
2022-11-14T16:10:15.274Z,6.80
2022-11-14T16:13:01.816Z,6.70
2022-11-14T16:15:47.968Z,6.37
2022-11-14T16:18:34.214Z,6.30
2022-11-14T16:21:23.208Z,6.77
2022-11-14T16:24:15.931Z,6.33
2022-11-14T16:27:02.582Z,7.30
2022-11-14T16:29:49.051Z,6.07
2022-11-14T16:32:35.242Z,6.53
2022-11-14T16:35:23.088Z,6.47
2022-11-14T16:38:13.593Z,6.43
2022-11-14T16:41:00.313Z,6.60
2022-11-14T16:43:46.753Z,7.70
2022-11-14T16:46:33.313Z,7.30
2022-11-14T16:49:20.043Z,8.13
2022-11-14T16:52:08.627Z,7.73
2022-11-14T16:54:56.400Z,7.27
2022-11-14T16:57:42.752Z,7.30
2022-11-14T17:00:28.897Z,7.77
2022-11-14T17:03:15.495Z,6.77
2022-11-14T17:06:02.054Z,7.90
2022-11-14T17:08:48.239Z,8.23
2022-11-14T17:11:36.031Z,7.53
2022-11-14T17:14:22.602Z,7.57
2022-11-14T17:17:08.910Z,7.60
2022-11-14T17:19:55.122Z,6.83
2022-11-14T17:22:41.397Z,8.00
2022-11-14T17:25:28.048Z,7.50
2022-11-14T17:28:15.629Z,9.40
2022-11-14T17:31:02.037Z,8.43
2022-11-14T17:33:52.021Z,7.30
2022-11-14T17:36:38.283Z,8.30
2022-11-14T17:39:24.607Z,7.87
2022-11-14T17:42:10.986Z,8.37
2022-11-14T17:45:00.827Z,7.40
2022-11-14T17:47:47.295Z,7.33
2022-11-14T17:50:37.563Z,7.57
2022-11-14T17:53:24.367Z,7.43
2022-11-14T17:56:11.400Z,7.57
2022-11-14T17:58:57.832Z,6.77
2022-11-14T18:01:45.663Z,7.57
2022-11-14T18:04:32.103Z,7.93
2022-11-14T18:07:20.537Z,7.30
2022-11-14T18:10:07.784Z,8.50
2022-11-14T18:12:54.156Z,7.73
2022-11-14T18:15:40.362Z,8.20
2022-11-14T18:18:28.178Z,7.93
2022-11-14T18:21:15.917Z,8.27
2022-11-14T18:24:02.364Z,8.57
2022-11-14T18:26:48.702Z,7.97
2022-11-14T18:29:34.904Z,9.10
2022-11-14T18:32:21.178Z,10.03
2022-11-14T18:35:10.375Z,7.83
2022-11-14T18:37:56.731Z,8.10
2022-11-14T18:40:44.516Z,8.40
2022-11-14T18:43:32.446Z,8.30
2022-11-14T18:46:21.604Z,8.47
2022-11-14T18:49:08.724Z,8.10
2022-11-14T18:51:56.867Z,8.37
2022-11-14T18:54:43.201Z,8.10
2022-11-14T18:57:29.647Z,8.77
2022-11-14T19:00:18.150Z,8.63
2022-11-14T19:03:06.397Z,7.93
2022-11-14T19:05:52.941Z,9.23
2022-11-14T19:08:40.702Z,9.43
2022-11-14T19:11:44.622Z,9.30
2022-11-14T19:14:31.081Z,9.73
2022-11-14T19:17:20.692Z,9.23
2022-11-14T19:20:14.019Z,9.70
2022-11-14T19:23:00.731Z,9.63
2022-11-14T19:25:48.268Z,9.77
2022-11-14T19:28:34.579Z,10.43
2022-11-14T19:31:21.588Z,10.13
2022-11-14T19:34:08.176Z,9.73
2022-11-14T19:37:02.038Z,10.37
2022-11-14T19:39:52.296Z,9.27
2022-11-14T19:42:40.206Z,10.77
2022-11-14T19:45:26.553Z,10.10
2022-11-14T19:48:12.673Z,10.17
2022-11-14T19:51:03.050Z,8.63
2022-11-14T19:53:49.979Z,7.97
2022-11-14T19:56:36.388Z,8.70
2022-11-14T19:59:24.762Z,8.40
2022-11-14T20:02:13.762Z,7.80
2022-11-14T20:05:00.178Z,9.13
2022-11-14T20:07:46.657Z,8.90
2022-11-14T20:10:47.288Z,9.03
2022-11-14T20:13:35.762Z,8.40
2022-11-14T20:16:24.717Z,8.67
2022-11-14T20:19:11.849Z,9.00
2022-11-14T20:21:58.492Z,9.73
2022-11-14T20:24:44.737Z,8.40
2022-11-14T20:27:31.038Z,8.67
2022-11-14T20:30:17.372Z,8.87
2022-11-14T20:33:05.834Z,8.97
2022-11-14T20:35:52.261Z,10.00
2022-11-14T20:38:38.889Z,8.90
2022-11-14T20:41:25.477Z,9.13
2022-11-14T20:44:12.072Z,8.37
2022-11-14T20:46:58.320Z,8.90
2022-11-14T20:49:46.900Z,9.03
2022-11-14T20:52:33.641Z,9.47
2022-11-14T20:55:19.927Z,9.37
2022-11-14T20:58:06.408Z,9.57
2022-11-14T21:00:53.310Z,9.03
2022-11-14T21:03:39.851Z,9.20
2022-11-14T21:06:27.729Z,9.23
2022-11-14T21:09:14.259Z,8.23
2022-11-14T21:12:00.652Z,9.03
2022-11-14T21:14:46.802Z,9.10
2022-11-14T21:17:33.173Z,8.90
2022-11-14T21:20:19.371Z,9.00
2022-11-14T21:23:07.051Z,8.97
2022-11-14T21:25:53.341Z,8.40
2022-11-14T21:28:40.984Z,7.57
2022-11-14T21:31:31.614Z,8.47
2022-11-14T21:34:18.529Z,8.60
2022-11-14T21:37:04.716Z,9.13
2022-11-14T21:39:52.228Z,8.30
2022-11-14T21:42:39.739Z,8.60
2022-11-14T21:45:26.460Z,8.33
2022-11-14T21:48:12.914Z,8.00
2022-11-14T21:51:06.888Z,7.80
2022-11-14T21:53:55.388Z,7.43
2022-11-14T21:56:43.059Z,7.33
2022-11-14T21:59:30.648Z,7.83
2022-11-14T22:02:34.500Z,6.80
2022-11-14T22:05:21.054Z,7.73
2022-11-14T22:08:07.249Z,7.17
2022-11-14T22:10:53.352Z,7.23
2022-11-14T22:13:40.993Z,7.10
2022-11-14T22:16:27.277Z,6.20
2022-11-14T22:19:13.512Z,6.23
2022-11-14T22:21:59.707Z,6.90
2022-11-14T22:24:46.012Z,6.67
2022-11-14T22:27:32.108Z,6.90
2022-11-14T22:30:19.817Z,6.43
2022-11-14T22:33:06.022Z,5.70
2022-11-14T22:35:52.204Z,6.43
2022-11-14T22:38:39.188Z,6.20
2022-11-14T22:41:31.907Z,6.23
2022-11-14T22:44:19.005Z,6.47
2022-11-14T22:47:06.638Z,6.83
2022-11-14T22:49:52.898Z,6.57
2022-11-14T22:52:39.150Z,6.70
2022-11-14T22:55:25.175Z,6.20
2022-11-14T22:58:11.406Z,6.63
2022-11-14T23:00:57.545Z,6.30
2022-11-14T23:03:45.245Z,7.23
2022-11-14T23:06:33.576Z,6.07
2022-11-14T23:09:20.270Z,6.73
2022-11-14T23:12:07.263Z,6.37
2022-11-14T23:14:53.407Z,6.07
2022-11-14T23:17:39.690Z,6.03
2022-11-14T23:20:27.820Z,6.50
2022-11-14T23:23:15.617Z,6.27
2022-11-14T23:26:05.484Z,6.40
2022-11-14T23:28:51.624Z,6.20
2022-11-14T23:31:37.945Z,6.27
2022-11-14T23:34:24.493Z,6.00
2022-11-14T23:37:12.087Z,6.07
2022-11-14T23:39:58.393Z,6.63
2022-11-14T23:42:44.448Z,5.93
2022-11-14T23:45:31.179Z,5.83
2022-11-14T23:48:17.894Z,5.85
2022-11-14T23:51:04.186Z,5.83
2022-11-14T23:53:51.947Z,5.87
2022-11-14T23:56:38.168Z,5.80
2022-11-14T23:59:24.410Z,4.70
